Terminal Aerodrome Forecast
Issued by NWS

Home | Current Version | Previous Version | Text Only | Print | Product List | Glossary On
Versions: 1 2 3 4 5 6 7 8 9 10 11 12 13 14 15 16 17 18 19 20 21
000
FTUS42 KTBW 111700
TAFPIE
TAF
KPIE 111725Z 1118/1218 07008KT P6SM VCTS SCT030CB BKN070
     FM112000 29007KT P6SM VCTS BKN040CB BKN200
     FM120200 VRB04KT P6SM SCT100 BKN200
     FM121500 14005KT P6SM SCT040 SCT200=

USA.gov is the U.S. government's official web portal to all federal, state and local government web resources and services.